Time;durP1;ratioP1;P1;durP2;ratioP2;P2;SDS_P1;SDS_P2;PMS_P1;PMS_P2;Temp;Humidity;BMP_temperature;BMP_pressure;BME280_temperature;BME280_humidity;BME280_pressure;Samples;Min_cycle;Max_cycle;Signal;HPM_P1;HPM_P2
2021/04/02 00:02:06;;;;;;;17.02;9.75;;;12.70;98.40;;;;;;4995514;28;20068;-76
2021/04/02 00:04:32;;;;;;;14.45;10.05;;;12.80;97.90;;;;;;5015095;28;20363;-78
2021/04/02 00:06:58;;;;;;;15.00;10.27;;;12.50;98.50;;;;;;5014753;28;20589;-76
2021/04/02 00:09:24;;;;;;;13.27;10.07;;;12.30;99.00;;;;;;5014816;28;20069;-78
2021/04/02 00:11:50;;;;;;;14.93;10.52;;;12.50;99.60;;;;;;5015344;28;20038;-75
2021/04/02 00:14:16;;;;;;;16.80;9.52;;;12.60;99.30;;;;;;5014896;28;20125;-76
2021/04/02 00:16:41;;;;;;;18.45;10.32;;;12.70;99.40;;;;;;5014701;28;20022;-74
2021/04/02 00:19:07;;;;;;;16.23;9.80;;;12.40;99.90;;;;;;5014787;28;20022;-75
2021/04/02 00:21:33;;;;;;;14.20;9.95;;;12.40;99.90;;;;;;5014766;28;20490;-75
2021/04/02 00:23:59;;;;;;;16.17;10.13;;;12.10;99.90;;;;;;5011467;28;20092;-75
2021/04/02 00:26:25;;;;;;;15.75;10.02;;;12.10;99.90;;;;;;5001086;28;20552;-76
2021/04/02 00:28:53;;;;;;;15.55;9.77;;;12.50;99.90;;;;;;5013902;28;20022;-76
2021/04/02 00:31:19;;;;;;;19.98;10.30;;;12.50;99.90;;;;;;5013844;28;20034;-74
2021/04/02 00:33:45;;;;;;;15.75;10.00;;;12.40;99.90;;;;;;5014537;28;20040;-74
2021/04/02 00:36:11;;;;;;;14.88;10.35;;;12.00;99.90;;;;;;5014020;28;20100;-76
2021/04/02 00:38:37;;;;;;;15.35;10.20;;;12.10;99.90;;;;;;5013562;28;20424;-74
2021/04/02 00:41:20;;;;;;;14.60;9.98;;;12.30;99.90;;;;;;5013549;28;20104;-76
2021/04/02 00:43:50;;;;;;;14.20;10.38;;;12.10;99.90;;;;;;5014549;28;20026;-76
2021/04/02 00:46:19;;;;;;;18.67;10.20;;;12.20;99.90;;;;;;5014018;28;20046;-76
2021/04/02 00:48:46;;;;;;;17.42;10.40;;;12.30;99.90;;;;;;5014633;28;20033;-77
2021/04/02 00:51:29;;;;;;;17.35;10.48;;;12.20;99.90;;;;;;5014021;28;20029;-75
2021/04/02 00:53:56;;;;;;;16.75;11.05;;;12.10;99.90;;;;;;5014518;28;20018;-77
2021/04/02 00:56:23;;;;;;;15.65;10.65;;;11.80;99.90;;;;;;5014214;28;20524;-75
2021/04/02 00:58:50;;;;;;;15.68;10.38;;;12.10;99.90;;;;;;5013920;28;20014;-76
2021/04/02 01:01:16;;;;;;;15.13;10.02;;;11.80;99.90;;;;;;5013564;28;20093;-76
2021/04/02 01:03:44;;;;;;;16.27;10.43;;;11.60;99.90;;;;;;4995935;28;20041;-76
2021/04/02 01:06:18;;;;;;;15.65;10.60;;;11.70;99.90;;;;;;5012704;28;20037;-75
2021/04/02 01:08:44;;;;;;;15.45;10.35;;;11.80;99.90;;;;;;5013581;28;20116;-77
2021/04/02 01:11:15;;;;;;;14.63;9.65;;;11.90;99.90;;;;;;5012918;28;20040;-76
2021/04/02 01:13:57;;;;;;;15.32;10.18;;;11.80;99.90;;;;;;5011868;28;20070;-75
2021/04/02 01:16:29;;;;;;;17.92;10.20;;;12.00;99.90;;;;;;5013341;28;20022;-78
2021/04/02 01:19:03;;;;;;;15.98;10.35;;;11.90;99.90;;;;;;5013115;28;20037;-77
2021/04/02 01:21:49;;;;;;;14.48;9.77;;;11.90;99.90;;;;;;5012934;28;20028;-76
2021/04/02 01:24:21;;;;;;;17.08;10.07;;;11.60;99.90;;;;;;5013521;28;20625;-79
2021/04/02 01:27:01;;;;;;;19.27;10.02;;;11.60;99.90;;;;;;5013615;28;20060;-77
2021/04/02 01:29:35;;;;;;;14.97;9.63;;;11.20;99.90;;;;;;5013652;28;20030;-75
2021/04/02 01:32:02;;;;;;;14.70;9.77;;;11.40;99.90;;;;;;5013390;28;20306;-76
2021/04/02 01:34:42;;;;;;;15.98;10.10;;;11.40;99.90;;;;;;5013154;28;20042;-76
2021/04/02 01:37:11;;;;;;;18.95;9.73;;;11.50;99.90;;;;;;5013030;28;20029;-75
2021/04/02 01:39:41;;;;;;;17.27;9.73;;;11.50;99.90;;;;;;5013371;28;20022;-76
2021/04/02 01:42:09;;;;;;;14.98;9.98;;;10.90;99.90;;;;;;5012872;28;20097;-77
2021/04/02 01:44:38;;;;;;;17.70;10.15;;;11.10;99.90;;;;;;5013300;28;20410;-76
2021/04/02 01:47:07;;;;;;;14.95;9.75;;;11.10;99.90;;;;;;5013249;28;20029;-76
2021/04/02 01:49:34;;;;;;;13.57;9.90;;;11.20;99.90;;;;;;5013122;28;20085;-77
2021/04/02 01:52:00;;;;;;;15.75;9.65;;;11.40;99.90;;;;;;5012592;28;20036;-74
2021/04/02 01:54:28;;;;;;;16.15;9.95;;;10.80;99.90;;;;;;5012545;28;20049;-76
2021/04/02 01:56:55;;;;;;;16.60;10.43;;;10.70;99.90;;;;;;5013309;28;20434;-75
2021/04/02 01:59:23;;;;;;;13.55;9.60;;;10.90;99.90;;;;;;5013024;28;20054;-74
2021/04/02 02:01:50;;;;;;;15.68;10.65;;;11.10;99.90;;;;;;5012904;28;20018;-77
2021/04/02 02:04:21;;;;;;;13.18;9.48;;;11.40;99.90;;;;;;5012927;28;20731;-75
2021/04/02 02:06:50;;;;;;;14.35;10.00;;;11.40;99.90;;;;;;5012751;28;20393;-74
2021/04/02 02:09:20;;;;;;;17.48;11.50;;;11.20;99.90;;;;;;5012414;28;20061;-77
2021/04/02 02:11:49;;;;;;;14.18;10.68;;;11.10;99.90;;;;;;5003902;28;20038;-76
2021/04/02 02:14:19;;;;;;;16.27;10.98;;;11.10;99.90;;;;;;4992897;28;20042;-74
2021/04/02 02:16:49;;;;;;;21.08;12.68;;;10.90;99.90;;;;;;4992765;28;20064;-74
2021/04/02 02:19:19;;;;;;;22.70;13.98;;;11.20;99.90;;;;;;4992732;28;20026;-75
2021/04/02 02:21:48;;;;;;;23.17;13.52;;;10.90;99.90;;;;;;4992991;28;20386;-74
2021/04/02 02:24:14;;;;;;;22.33;13.52;;;10.70;99.90;;;;;;4992977;28;20392;-76
2021/04/02 02:26:42;;;;;;;21.20;13.68;;;10.80;99.90;;;;;;4992791;28;20046;-75
2021/04/02 02:29:12;;;;;;;20.17;14.02;;;10.80;99.90;;;;;;4993001;28;20386;-75
2021/04/02 02:31:38;;;;;;;21.08;12.35;;;11.00;99.90;;;;;;4992803;28;20037;-75
2021/04/02 02:34:06;;;;;;;21.95;12.65;;;10.80;99.90;;;;;;4992801;28;20061;-74
2021/04/02 02:36:33;;;;;;;19.90;12.00;;;10.90;99.90;;;;;;4992470;28;20026;-75
2021/04/02 02:38:59;;;;;;;17.42;11.00;;;10.90;99.90;;;;;;4992660;28;20023;-75
2021/04/02 02:41:29;;;;;;;23.08;12.52;;;11.00;99.90;;;;;;4992912;28;20484;-74
2021/04/02 02:43:57;;;;;;;24.60;13.48;;;10.90;99.90;;;;;;4992435;28;20035;-74
2021/04/02 02:46:26;;;;;;;16.40;11.77;;;10.80;99.90;;;;;;4992485;28;20034;-76
2021/04/02 02:48:59;;;;;;;22.98;13.43;;;10.80;99.90;;;;;;4992538;28;20018;-76
2021/04/02 02:51:28;;;;;;;15.95;10.93;;;10.80;99.90;;;;;;4992625;28;20377;-77
2021/04/02 02:53:59;;;;;;;19.05;12.05;;;10.60;99.90;;;;;;4992464;28;20029;-76
2021/04/02 02:56:26;;;;;;;16.95;11.38;;;10.60;99.90;;;;;;4992992;28;20538;-76
2021/04/02 02:58:54;;;;;;;22.08;11.50;;;10.80;99.90;;;;;;4992345;28;20034;-76
2021/04/02 03:01:20;;;;;;;18.33;10.70;;;10.70;99.90;;;;;;4992045;28;20392;-74
2021/04/02 03:03:47;;;;;;;18.20;10.95;;;10.80;99.90;;;;;;4992296;28;20030;-75
2021/04/02 03:06:13;;;;;;;16.90;11.18;;;10.70;99.90;;;;;;4974544;28;20034;-75
2021/04/02 03:08:45;;;;;;;18.75;12.30;;;10.70;99.90;;;;;;4992330;28;20049;-76
2021/04/02 03:11:14;;;;;;;23.30;13.82;;;10.70;99.90;;;;;;4995046;28;21488;-75
2021/04/02 03:13:41;;;;;;;18.35;11.85;;;10.50;99.90;;;;;;5011680;28;20137;-76
2021/04/02 03:16:10;;;;;;;16.77;10.88;;;10.30;99.90;;;;;;5011729;28;20057;-75
2021/04/02 03:18:37;;;;;;;15.07;10.75;;;10.50;99.90;;;;;;5011454;28;20017;-76
2021/04/02 03:21:07;;;;;;;15.82;10.18;;;10.70;99.90;;;;;;5011578;28;20362;-77
2021/04/02 03:23:36;;;;;;;14.98;10.52;;;10.50;99.90;;;;;;5012140;28;20453;-77
2021/04/02 03:26:03;;;;;;;17.33;10.65;;;9.90;99.90;;;;;;5011394;28;20045;-76
2021/04/02 03:28:29;;;;;;;16.92;11.85;;;9.90;99.90;;;;;;5011545;28;20494;-77
2021/04/02 03:30:55;;;;;;;17.80;10.38;;;10.20;99.90;;;;;;5011841;28;20052;-75
2021/04/02 03:33:30;;;;;;;15.20;10.38;;;10.30;99.90;;;;;;5011336;28;20447;-76
2021/04/02 03:36:10;;;;;;;19.92;11.52;;;10.40;99.90;;;;;;5012044;28;20073;-76
2021/04/02 03:38:39;;;;;;;17.25;10.68;;;10.70;99.90;;;;;;5015452;28;20085;-77
2021/04/02 03:41:13;;;;;;;15.95;10.15;;;10.80;99.90;;;;;;5015989;28;20063;-77
2021/04/02 03:43:41;;;;;;;16.88;11.13;;;9.90;99.90;;;;;;5015651;28;20030;-77
2021/04/02 03:46:09;;;;;;;20.30;11.13;;;9.70;99.90;;;;;;5015495;28;20061;-77
2021/04/02 03:48:38;;;;;;;18.13;10.52;;;9.40;99.90;;;;;;5015433;28;20069;-77
2021/04/02 03:51:07;;;;;;;19.25;11.65;;;9.80;99.90;;;;;;5015778;28;20109;-77
2021/04/02 03:53:42;;;;;;;17.27;10.95;;;10.20;99.90;;;;;;5015311;28;20049;-77
2021/04/02 03:56:11;;;;;;;18.25;11.25;;;10.30;99.90;;;;;;5015247;28;20037;-77
2021/04/02 03:58:40;;;;;;;17.42;11.57;;;10.50;99.90;;;;;;5015036;28;20018;-77
2021/04/02 04:01:13;;;;;;;18.33;11.23;;;10.60;99.90;;;;;;5015089;28;20029;-77
2021/04/02 04:03:42;;;;;;;16.05;10.25;;;10.40;99.90;;;;;;5015273;28;20080;-78
2021/04/02 04:06:20;;;;;;;18.83;11.27;;;10.50;99.90;;;;;;5014944;28;20034;-77
2021/04/02 04:08:52;;;;;;;18.80;9.63;;;10.50;99.90;;;;;;5015261;28;20022;-77
2021/04/02 04:11:18;;;;;;;14.38;10.50;;;9.90;99.90;;;;;;5012988;28;20034;-77
2021/04/02 04:13:47;;;;;;;23.77;10.95;;;10.20;99.90;;;;;;4995307;28;20089;-78
2021/04/02 04:16:20;;;;;;;18.65;10.93;;;9.80;99.90;;;;;;4995325;28;20026;-77
2021/04/02 04:18:51;;;;;;;16.40;10.60;;;9.00;99.90;;;;;;4995101;28;20018;-77
2021/04/02 04:21:18;;;;;;;15.45;10.68;;;9.00;99.90;;;;;;4995458;28;20097;-78
2021/04/02 04:23:45;;;;;;;21.08;11.75;;;8.60;99.90;;;;;;4995427;28;20034;-78
2021/04/02 04:26:13;;;;;;;26.15;12.02;;;9.10;99.90;;;;;;4995590;28;20054;-78
2021/04/02 04:28:41;;;;;;;21.88;11.77;;;9.60;99.90;;;;;;4995335;28;20045;-77
2021/04/02 04:31:09;;;;;;;14.23;10.27;;;10.00;99.90;;;;;;4995255;28;20030;-76
2021/04/02 04:33:38;;;;;;;20.63;10.15;;;9.80;99.90;;;;;;4994924;28;20077;-76
2021/04/02 04:36:07;;;;;;;16.33;10.90;;;9.80;99.90;;;;;;4995368;28;20070;-76
2021/04/02 04:38:36;;;;;;;23.83;12.98;;;9.70;99.90;;;;;;4994676;28;20386;-74
2021/04/02 04:41:02;;;;;;;28.73;14.10;;;10.00;99.90;;;;;;4995188;28;20098;-75
2021/04/02 04:43:31;;;;;;;19.48;11.70;;;10.20;99.90;;;;;;4994902;28;20022;-76
2021/04/02 04:45:57;;;;;;;21.05;11.48;;;10.20;99.90;;;;;;4994767;28;20034;-77
2021/04/02 04:48:22;;;;;;;20.45;12.98;;;10.20;99.90;;;;;;4994549;28;20382;-76
2021/04/02 04:50:48;;;;;;;19.45;11.93;;;10.40;99.90;;;;;;4994716;28;20145;-75
2021/04/02 04:53:16;;;;;;;18.08;10.32;;;10.20;99.90;;;;;;4995048;28;20363;-76
2021/04/02 04:55:44;;;;;;;14.75;9.95;;;9.10;99.90;;;;;;4994718;28;20110;-76
2021/04/02 04:58:15;;;;;;;21.30;11.07;;;8.70;99.90;;;;;;4994810;28;20027;-77
2021/04/02 05:00:45;;;;;;;21.77;12.15;;;9.50;99.90;;;;;;4994755;28;20022;-76
2021/04/02 05:03:19;;;;;;;19.70;12.75;;;9.90;99.90;;;;;;4994681;28;20040;-78
2021/04/02 05:05:46;;;;;;;13.18;9.25;;;10.20;99.90;;;;;;4994376;28;20030;-76
2021/04/02 05:08:17;;;;;;;21.58;10.32;;;9.20;99.90;;;;;;4994188;28;20101;-76
2021/04/02 05:10:45;;;;;;;30.10;11.57;;;8.80;99.90;;;;;;4994166;28;20117;-77
2021/04/02 05:13:13;;;;;;;23.67;10.27;;;8.90;99.90;;;;;;5004769;28;20139;-75
2021/04/02 05:15:40;;;;;;;19.73;10.90;;;9.30;99.90;;;;;;5001630;28;20037;-79
2021/04/02 05:18:06;;;;;;;16.95;11.90;;;9.60;99.90;;;;;;4994389;28;20027;-77
2021/04/02 05:20:43;;;;;;;143.00;76.07;;;10.30;99.90;;;;;;4994184;28;20044;-77
2021/04/02 05:23:14;;;;;;;92.20;50.65;;;10.80;99.90;;;;;;4993993;28;20038;-80
2021/04/02 05:25:40;;;;;;;;;;;11.10;99.90;;;;;;4994712;28;20441;-79
2021/04/02 05:28:07;;;;;;;17.73;12.65;;;10.00;99.90;;;;;;4993991;28;19913;-78
2021/04/02 05:30:35;;;;;;;46.85;29.05;;;9.40;99.90;;;;;;5007777;28;20030;-75
2021/04/02 05:33:01;;;;;;;24.45;14.13;;;10.10;99.90;;;;;;5013373;28;20080;-76
2021/04/02 05:35:27;;;;;;;21.30;11.95;;;10.60;99.90;;;;;;5013186;28;20018;-77
2021/04/02 05:37:53;;;;;;;15.85;10.18;;;10.30;99.90;;;;;;5013202;28;20040;-76
2021/04/02 05:40:19;;;;;;;18.05;10.35;;;10.20;99.90;;;;;;5012966;28;20030;-76
2021/04/02 05:43:18;;;;;;;20.92;11.50;;;9.60;99.90;;;;;;5012956;28;20030;-76
2021/04/02 05:45:46;;;;;;;18.33;10.00;;;10.10;99.90;;;;;;5012980;28;20091;-75
2021/04/02 05:48:16;;;;;;;17.92;11.07;;;10.80;99.90;;;;;;5012863;28;20370;-77
2021/04/02 05:50:42;;;;;;;17.73;10.63;;;10.70;99.90;;;;;;5012988;28;20026;-75
2021/04/02 05:53:10;;;;;;;17.40;10.27;;;9.80;99.90;;;;;;5013281;28;20060;-78
2021/04/02 05:55:42;;;;;;;20.50;11.40;;;9.70;99.90;;;;;;5011364;28;20030;-77
2021/04/02 05:58:10;;;;;;;16.73;10.38;;;9.30;99.90;;;;;;4987528;28;20106;-76
2021/04/02 06:00:37;;;;;;;18.83;10.73;;;10.20;99.90;;;;;;4991877;28;20022;-78
2021/04/02 06:03:05;;;;;;;18.05;10.38;;;10.90;99.90;;;;;;4992567;28;20370;-78
2021/04/02 06:05:31;;;;;;;14.40;10.50;;;10.90;99.90;;;;;;5000159;28;20033;-78
2021/04/02 06:07:57;;;;;;;26.05;15.90;;;10.30;99.90;;;;;;4995145;28;20026;-75
2021/04/02 06:10:24;;;;;;;21.13;12.55;;;11.00;99.90;;;;;;4999615;28;20085;-77
2021/04/02 06:12:50;;;;;;;19.75;11.60;;;11.50;99.90;;;;;;5003888;28;20034;-77
2021/04/02 06:15:21;;;;;;;16.33;10.52;;;11.70;99.90;;;;;;5002474;28;20026;-76
2021/04/02 06:18:05;;;;;;;16.58;11.27;;;11.90;99.90;;;;;;4992559;28;20109;-76
2021/04/02 06:20:40;;;;;;;19.23;10.40;;;12.00;99.90;;;;;;4990849;28;20022;-79
2021/04/02 06:23:05;;;;;;;17.80;11.07;;;12.40;99.90;;;;;;4990943;28;20054;-76
2021/04/02 06:25:31;;;;;;;17.65;11.27;;;12.50;99.90;;;;;;4991048;28;20120;-77
2021/04/02 06:27:57;;;;;;;18.52;10.50;;;12.60;99.90;;;;;;4990940;28;20397;-75
2021/04/02 06:30:27;;;;;;;17.75;10.02;;;12.60;99.90;;;;;;4990724;28;20593;-75
2021/04/02 06:32:54;;;;;;;15.32;11.07;;;12.60;99.90;;;;;;4990778;28;20064;-77
2021/04/02 06:35:25;;;;;;;17.95;10.65;;;12.60;99.90;;;;;;4974898;28;20054;-76
2021/04/02 06:37:57;;;;;;;19.35;11.32;;;12.40;99.90;;;;;;4992352;28;20029;-77
2021/04/02 06:40:24;;;;;;;21.02;11.93;;;12.60;99.90;;;;;;4992294;28;20031;-76
2021/04/02 06:42:50;;;;;;;18.48;11.82;;;12.60;99.90;;;;;;4992202;28;20112;-78
2021/04/02 06:45:18;;;;;;;17.73;12.25;;;12.80;99.90;;;;;;4992450;28;20022;-75
2021/04/02 06:47:45;;;;;;;17.10;11.85;;;12.50;99.90;;;;;;4992644;28;20048;-78
2021/04/02 06:50:24;;;;;;;22.05;11.88;;;12.60;99.90;;;;;;4992360;28;20031;-75
2021/04/02 06:52:55;;;;;;;21.23;11.82;;;12.40;99.90;;;;;;4987639;28;20098;-76
2021/04/02 06:55:21;;;;;;;;;;;12.80;99.90;;;;;;4973357;28;20031;-76
2021/04/02 06:57:49;;;;;;;19.05;12.13;;;12.90;99.90;;;;;;4988897;28;19916;-77
2021/04/02 07:00:23;;;;;;;18.33;12.50;;;12.80;99.90;;;;;;4992042;28;20030;-76
2021/04/02 07:02:50;;;;;;;21.00;11.73;;;13.00;99.90;;;;;;4992102;28;20023;-75
2021/04/02 07:05:18;;;;;;;17.77;12.25;;;13.30;99.90;;;;;;4992434;28;20042;-77
2021/04/02 07:07:45;;;;;;;21.05;12.07;;;13.30;99.90;;;;;;4992298;28;20046;-77
2021/04/02 07:10:12;;;;;;;17.45;12.02;;;13.50;99.90;;;;;;4991861;28;20058;-78
2021/04/02 07:12:42;;;;;;;20.05;11.73;;;13.60;99.90;;;;;;4999470;28;20050;-76
2021/04/02 07:15:09;;;;;;;18.02;11.90;;;13.80;99.90;;;;;;5011628;28;20030;-75
2021/04/02 07:17:36;;;;;;;23.02;13.60;;;13.90;99.90;;;;;;5011797;28;20430;-78
2021/04/02 07:20:02;;;;;;;21.50;12.65;;;13.60;99.90;;;;;;5011580;28;20021;-76
2021/04/02 07:22:30;;;;;;;23.38;12.68;;;13.70;99.90;;;;;;5011920;28;20077;-75
2021/04/02 07:24:59;;;;;;;24.52;12.45;;;13.40;99.90;;;;;;5010993;28;20022;-76
2021/04/02 07:27:27;;;;;;;16.80;11.80;;;13.50;99.90;;;;;;4991388;28;20034;-77
2021/04/02 07:29:54;;;;;;;18.00;11.70;;;13.90;99.90;;;;;;4992047;28;20018;-76
2021/04/02 07:32:21;;;;;;;19.55;12.07;;;14.10;99.90;;;;;;4991571;28;20022;-76
2021/04/02 07:34:47;;;;;;;19.60;12.13;;;14.30;99.90;;;;;;4982347;28;20026;-76
2021/04/02 07:37:16;;;;;;;19.40;11.98;;;14.50;99.90;;;;;;4980502;28;20037;-79
2021/04/02 07:39:45;;;;;;;15.90;12.23;;;14.60;99.90;;;;;;4987603;28;20026;-77
2021/04/02 07:42:11;;;;;;;23.90;12.00;;;14.60;99.90;;;;;;4992301;28;20034;-78
2021/04/02 07:44:45;;;;;;;18.98;11.35;;;14.60;99.90;;;;;;4964829;28;20043;-77
2021/04/02 07:47:13;;;;;;;20.85;12.55;;;13.80;99.90;;;;;;4988632;28;20049;-77
2021/04/02 07:49:58;;;;;;;18.63;11.35;;;13.90;99.90;;;;;;4991884;28;20023;-76
2021/04/02 07:52:40;;;;;;;17.02;11.13;;;14.30;99.90;;;;;;4991415;28;20093;-77
2021/04/02 07:55:08;;;;;;;28.45;12.45;;;14.60;99.90;;;;;;4990462;28;20030;-77
2021/04/02 07:58:00;;;;;;;19.42;11.63;;;14.80;99.90;;;;;;4987621;28;20023;-76
2021/04/02 08:00:28;;;;;;;26.92;12.48;;;15.10;99.90;;;;;;4981691;28;20407;-77
2021/04/02 08:03:13;;;;;;;18.88;11.65;;;14.50;99.90;;;;;;4991483;28;20058;-77
2021/04/02 08:05:53;;;;;;;20.23;12.50;;;14.30;99.90;;;;;;4970401;28;20536;-77
2021/04/02 08:08:19;;;;;;;21.10;11.90;;;14.70;99.90;;;;;;4992221;28;20416;-79
2021/04/02 08:11:14;;;;;;;20.20;12.57;;;14.80;99.90;;;;;;4991565;28;20560;-78
2021/04/02 08:14:11;;;;;;;21.15;12.27;;;14.90;99.90;;;;;;4993862;28;20050;-77
2021/04/02 08:16:55;;;;;;;16.92;11.60;;;14.80;99.90;;;;;;4989802;28;20058;-77
2021/04/02 08:19:26;;;;;;;22.95;13.90;;;14.80;99.90;;;;;;4991064;28;20026;-78
2021/04/02 08:22:03;;;;;;;21.17;12.02;;;14.60;99.90;;;;;;4991315;28;20026;-76
2021/04/02 08:24:34;;;;;;;22.02;12.75;;;14.20;99.90;;;;;;4996039;28;20560;-75
2021/04/02 08:27:00;;;;;;;22.45;13.20;;;14.40;99.90;;;;;;4991942;28;20414;-75
2021/04/02 08:29:27;;;;;;;21.00;12.13;;;14.30;99.90;;;;;;4993466;28;20037;-77
2021/04/02 08:31:59;;;;;;;27.75;13.23;;;14.50;99.90;;;;;;4994736;28;20383;-77
2021/04/02 08:34:28;;;;;;;20.80;11.70;;;14.70;99.90;;;;;;4994455;28;20067;-77
2021/04/02 08:37:03;;;;;;;20.45;12.75;;;14.60;99.90;;;;;;4992526;28;20466;-75
2021/04/02 08:39:29;;;;;;;19.85;12.27;;;14.60;99.90;;;;;;4975225;28;20093;-77
2021/04/02 08:42:02;;;;;;;22.42;14.35;;;14.60;99.90;;;;;;4981505;28;20107;-78
2021/04/02 08:44:30;;;;;;;21.10;12.43;;;14.80;99.90;;;;;;4990935;28;20092;-75
2021/04/02 08:47:04;;;;;;;18.27;12.93;;;14.40;99.90;;;;;;4988679;28;20039;-75
2021/04/02 08:49:40;;;;;;;17.52;11.68;;;14.40;99.90;;;;;;4982737;28;20062;-76
2021/04/02 08:52:10;;;;;;;21.23;12.50;;;14.10;99.90;;;;;;4985958;28;20105;-77
2021/04/02 08:54:36;;;;;;;;;;;14.50;99.90;;;;;;4994220;28;20101;-76
2021/04/02 08:57:03;;;;;;;18.42;12.55;;;14.50;99.90;;;;;;4994154;28;20369;-75
2021/04/02 08:59:38;;;;;;;22.73;12.70;;;14.50;99.90;;;;;;4993467;28;20026;-74
2021/04/02 09:02:05;;;;;;;20.67;12.02;;;14.30;99.90;;;;;;4976324;28;20030;-75
2021/04/02 09:04:32;;;;;;;23.23;14.23;;;14.50;99.90;;;;;;4994067;28;20054;-77
2021/04/02 09:06:58;;;;;;;21.20;13.23;;;14.50;99.90;;;;;;4993757;28;20038;-76
2021/04/02 09:09:28;;;;;;;21.08;12.73;;;14.70;99.90;;;;;;4984067;28;20027;-75
2021/04/02 09:11:54;;;;;;;18.05;11.63;;;14.70;99.60;;;;;;4981968;28;20029;-76
2021/04/02 09:14:21;;;;;;;20.38;12.38;;;14.60;99.30;;;;;;4994420;28;20018;-76
2021/04/02 09:16:49;;;;;;;25.00;14.60;;;14.70;99.40;;;;;;4992606;28;20434;-76
2021/04/02 09:19:16;;;;;;;18.75;12.63;;;14.60;99.90;;;;;;4992143;28;20348;-76
2021/04/02 09:21:43;;;;;;;23.98;13.48;;;14.60;99.90;;;;;;4992725;28;20018;-77
2021/04/02 09:24:10;;;;;;;23.13;14.48;;;14.60;99.90;;;;;;4993538;28;20096;-76
2021/04/02 09:26:42;;;;;;;26.27;14.07;;;14.60;99.90;;;;;;4995713;28;20394;-76
2021/04/02 09:29:09;;;;;;;21.27;15.25;;;14.60;99.90;;;;;;4996081;28;20394;-79
2021/04/02 09:31:37;;;;;;;23.85;14.77;;;14.70;99.90;;;;;;4976101;28;20488;-78
2021/04/02 09:34:11;;;;;;;25.05;16.50;;;14.60;99.90;;;;;;4992220;28;20030;-78
2021/04/02 09:36:42;;;;;;;27.10;14.80;;;14.60;99.90;;;;;;4989673;28;20050;-78
2021/04/02 09:39:10;;;;;;;;;;;14.50;99.90;;;;;;4974128;28;20038;-79
2021/04/02 09:41:40;;;;;;;28.65;15.55;;;14.50;99.90;;;;;;4969000;28;19969;-78
2021/04/02 09:44:14;;;;;;;29.75;14.75;;;14.20;99.90;;;;;;4982341;28;20093;-77
2021/04/02 09:46:45;;;;;;;27.23;14.88;;;14.40;99.90;;;;;;4989892;28;20038;-79
2021/04/02 09:49:12;;;;;;;;;;;14.60;99.90;;;;;;4975014;28;20482;-78
2021/04/02 09:51:40;;;;;;;26.15;14.80;;;14.30;99.90;;;;;;4994216;28;19910;-79
2021/04/02 09:54:07;;;;;;;19.85;14.40;;;14.30;99.90;;;;;;4993728;28;20026;-77
2021/04/02 09:56:34;;;;;;;26.73;14.02;;;14.60;99.90;;;;;;4993560;28;20037;-76
2021/04/02 09:59:00;;;;;;;24.58;13.80;;;14.90;99.90;;;;;;4993367;28;20063;-79
2021/04/02 10:01:25;;;;;;;23.23;12.77;;;15.40;99.20;;;;;;4993019;28;20026;-81
2021/04/02 10:03:58;;;;;;;22.45;12.23;;;16.70;97.30;;;;;;4992726;28;20474;-80
2021/04/02 10:06:24;;;;;;;22.90;12.23;;;16.80;93.60;;;;;;4975484;28;20057;-81
2021/04/02 10:08:50;;;;;;;25.83;13.05;;;16.60;94.10;;;;;;4975698;28;20086;-80
2021/04/02 10:11:16;;;;;;;23.63;12.77;;;17.00;93.50;;;;;;4977701;28;20126;-80
2021/04/02 10:13:42;;;;;;;17.75;11.27;;;17.50;92.10;;;;;;4994621;28;20050;-79
2021/04/02 10:16:08;;;;;;;17.55;12.73;;;18.00;90.40;;;;;;5012509;28;20029;-81
2021/04/02 10:18:36;;;;;;;17.33;11.75;;;18.10;88.30;;;;;;4986754;28;20061;-80
2021/04/02 10:21:04;;;;;;;23.85;11.18;;;18.90;88.10;;;;;;4991181;28;20089;-79
2021/04/02 10:23:34;;;;;;;21.05;11.85;;;19.00;83.80;;;;;;4976693;28;20098;-78
2021/04/02 10:26:01;;;;;;;17.38;11.50;;;19.10;82.90;;;;;;4975460;28;20038;-77
2021/04/02 10:28:26;;;;;;;19.58;10.93;;;19.00;79.80;;;;;;4985316;28;20117;-80
2021/04/02 10:30:53;;;;;;;15.88;11.23;;;18.90;81.80;;;;;;4991426;28;20102;-78
2021/04/02 10:33:19;;;;;;;16.40;10.35;;;19.00;81.50;;;;;;4991738;28;20062;-78
2021/04/02 10:35:45;;;;;;;17.88;9.18;;;19.40;79.70;;;;;;4991650;28;20033;-79
2021/04/02 10:38:12;;;;;;;14.38;8.85;;;19.60;76.00;;;;;;4983776;28;20026;-79
2021/04/02 10:40:38;;;;;;;13.80;9.05;;;19.10;78.00;;;;;;4984753;28;20430;-81
2021/04/02 10:43:09;;;;;;;16.85;9.32;;;18.50;79.90;;;;;;4983307;28;20109;-80
2021/04/02 10:45:35;;;;;;;17.05;9.55;;;18.10;80.70;;;;;;4978608;28;20486;-82
2021/04/02 10:48:01;;;;;;;16.20;8.93;;;18.10;80.10;;;;;;4955821;28;20129;-80
2021/04/02 10:50:29;;;;;;;15.45;9.85;;;18.20;81.90;;;;;;4972665;28;20506;-78
2021/04/02 10:52:55;;;;;;;14.02;9.02;;;18.70;79.80;;;;;;4972663;28;20038;-79
2021/04/02 10:55:22;;;;;;;15.85;9.68;;;18.80;78.80;;;;;;4972910;28;20035;-78
2021/04/02 10:57:48;;;;;;;12.63;9.07;;;19.40;77.70;;;;;;4973206;28;20110;-79
2021/04/02 11:00:16;;;;;;;18.10;8.82;;;19.70;75.50;;;;;;4988025;28;20097;-79
2021/04/02 11:02:42;;;;;;;12.23;8.65;;;19.60;74.00;;;;;;4993095;28;20023;-80
2021/04/02 11:05:09;;;;;;;14.43;9.98;;;20.40;74.90;;;;;;4993108;28;20018;-81
2021/04/02 11:07:35;;;;;;;14.95;9.73;;;20.60;69.40;;;;;;4993060;28;20033;-83
2021/04/02 11:10:01;;;;;;;12.55;8.63;;;20.60;69.60;;;;;;4974886;28;20026;-81
2021/04/02 11:12:29;;;;;;;13.10;9.13;;;20.80;68.20;;;;;;4992822;28;20117;-82
2021/04/02 11:14:58;;;;;;;15.13;10.00;;;20.90;67.30;;;;;;4992396;28;20106;-80
2021/04/02 11:17:25;;;;;;;17.25;10.45;;;21.00;67.70;;;;;;4992567;28;20022;-80
2021/04/02 11:19:53;;;;;;;18.10;11.50;;;20.90;66.20;;;;;;4992148;28;20414;-82
2021/04/02 11:22:19;;;;;;;15.85;11.60;;;20.70;66.50;;;;;;4992715;28;20390;-80
2021/04/02 11:24:46;;;;;;;16.17;11.00;;;20.50;66.30;;;;;;4992463;28;20419;-81
2021/04/02 11:27:12;;;;;;;19.88;11.55;;;21.10;66.50;;;;;;4992752;28;20049;-80
2021/04/02 11:29:38;;;;;;;15.35;10.98;;;21.20;63.90;;;;;;4992322;28;20026;-80
2021/04/02 11:32:10;;;;;;;14.80;10.38;;;21.30;64.10;;;;;;4992333;28;20394;-79
2021/04/02 11:34:37;;;;;;;18.27;11.40;;;21.90;62.60;;;;;;4991111;28;20073;-80
2021/04/02 11:37:06;;;;;;;17.17;11.82;;;21.40;63.70;;;;;;4974036;28;20049;-80
2021/04/02 11:39:33;;;;;;;17.33;12.88;;;21.30;63.40;;;;;;4991819;28;20435;-82
2021/04/02 11:41:59;;;;;;;19.77;11.85;;;21.20;62.40;;;;;;4992495;28;20038;-80
2021/04/02 11:44:25;;;;;;;15.48;11.05;;;20.90;62.90;;;;;;4974481;28;20030;-78
2021/04/02 11:46:51;;;;;;;18.98;11.35;;;21.30;62.40;;;;;;4991142;28;20038;-80
2021/04/02 11:49:17;;;;;;;13.00;9.45;;;21.10;62.50;;;;;;4991924;28;20105;-81
2021/04/02 11:51:44;;;;;;;16.55;9.68;;;21.70;60.90;;;;;;4992153;28;20076;-82
2021/04/02 11:54:10;;;;;;;14.50;8.65;;;21.20;60.80;;;;;;4992039;28;20050;-82
2021/04/02 11:56:36;;;;;;;12.18;8.35;;;20.90;62.50;;;;;;4992382;28;20039;-81
2021/04/02 11:59:02;;;;;;;15.55;8.32;;;20.90;62.80;;;;;;4995838;28;20065;-81
2021/04/02 12:01:27;;;;;;;12.98;8.85;;;20.70;62.70;;;;;;4996310;28;20082;-81
2021/04/02 12:03:53;;;;;;;18.05;9.30;;;20.30;63.70;;;;;;4996134;28;20427;-78
2021/04/02 12:06:19;;;;;;;12.85;8.60;;;20.10;64.20;;;;;;4995994;28;20066;-78
2021/04/02 12:08:45;;;;;;;12.85;8.73;;;19.90;64.30;;;;;;4978513;28;20023;-82
2021/04/02 12:11:11;;;;;;;15.25;9.80;;;19.80;64.80;;;;;;4995794;28;20097;-82
2021/04/02 12:13:36;;;;;;;13.05;7.82;;;20.10;66.00;;;;;;5003232;28;20042;-81
2021/04/02 12:16:02;;;;;;;20.52;9.40;;;20.20;66.50;;;;;;5012188;28;20381;-79
2021/04/02 12:18:28;;;;;;;17.90;9.63;;;20.50;65.20;;;;;;5015739;28;20029;-78
2021/04/02 12:20:55;;;;;;;21.77;9.10;;;20.90;65.50;;;;;;5008918;28;20045;-80
2021/04/02 12:23:21;;;;;;;20.70;9.75;;;20.70;65.60;;;;;;4987002;28;20109;-78
2021/04/02 12:25:48;;;;;;;18.02;10.05;;;20.70;65.20;;;;;;4995021;28;20065;-81
2021/04/02 12:28:14;;;;;;;13.77;8.98;;;20.80;65.40;;;;;;5006195;28;20385;-80
2021/04/02 12:30:40;;;;;;;12.55;7.85;;;20.90;65.70;;;;;;5014648;28;20500;-77
2021/04/02 12:33:06;;;;;;;18.00;9.13;;;20.80;64.90;;;;;;5014514;28;20377;-79
2021/04/02 12:35:33;;;;;;;14.38;8.63;;;20.70;65.60;;;;;;5014486;28;20493;-82
2021/04/02 12:37:59;;;;;;;15.82;9.63;;;20.80;65.40;;;;;;5014691;28;20493;-80
2021/04/02 12:40:26;;;;;;;17.15;9.15;;;21.00;65.40;;;;;;5013911;28;20473;-81